Time;durP1;ratioP1;P1;durP2;ratioP2;P2;SDS_P1;SDS_P2;PMS_P1;PMS_P2;Temp;Humidity;BMP_temperature;BMP_pressure;BME280_temperature;BME280_humidity;BME280_pressure;Samples;Min_cycle;Max_cycle;Signal;HPM_P1;HPM_P2
2022/05/01 00:01:49;;;;;;;4.83;3.83;;;7.90;99.90;;;;;;4892899;29;20241;-59
2022/05/01 00:04:17;;;;;;;5.50;4.20;;;7.80;99.90;;;;;;4895924;29;20249;-60
2022/05/01 00:06:47;;;;;;;6.20;4.20;;;7.70;99.90;;;;;;4889968;29;20245;-60
2022/05/01 00:09:15;;;;;;;4.70;3.70;;;7.80;99.90;;;;;;4885313;29;20593;-60
2022/05/01 00:11:43;;;;;;;5.47;3.70;;;7.80;99.90;;;;;;4893394;29;20313;-59
2022/05/01 00:14:12;;;;;;;4.33;3.90;;;7.70;99.90;;;;;;4888050;29;20264;-59
2022/05/01 00:16:40;;;;;;;5.07;4.00;;;7.70;99.90;;;;;;4892581;29;20273;-59
2022/05/01 00:19:09;;;;;;;6.50;3.73;;;7.70;99.90;;;;;;4894670;29;20245;-60
2022/05/01 00:21:37;;;;;;;5.77;3.30;;;7.60;99.90;;;;;;4889984;29;20244;-60
2022/05/01 00:24:07;;;;;;;3.43;3.10;;;7.50;99.90;;;;;;4887738;29;20294;-60
2022/05/01 00:26:35;;;;;;;4.20;3.10;;;7.50;99.90;;;;;;4894094;29;20766;-59
2022/05/01 00:29:04;;;;;;;4.40;3.13;;;7.40;99.90;;;;;;4893735;29;20249;-59
2022/05/01 00:31:33;;;;;;;3.87;3.10;;;7.40;99.90;;;;;;4889732;29;20249;-59
2022/05/01 00:36:46;;;;;;;3.53;3.23;;;7.50;99.90;;;;;;4889940;29;20634;-59
2022/05/01 00:39:16;;;;;;;3.83;3.43;;;7.50;99.90;;;;;;4882061;29;20238;-59
2022/05/01 00:41:46;;;;;;;6.07;4.10;;;7.60;99.90;;;;;;4886900;29;20781;-61
2022/05/01 00:44:15;;;;;;;5.87;4.00;;;7.60;99.90;;;;;;4894945;29;20237;-59
2022/05/01 00:46:46;;;;;;;6.17;4.30;;;7.70;99.90;;;;;;4889586;29;20237;-59
2022/05/01 00:49:16;;;;;;;5.60;3.80;;;7.60;99.90;;;;;;4882017;29;20248;-59
2022/05/01 00:51:48;;;;;;;4.97;4.13;;;7.60;99.90;;;;;;4880190;29;20316;-59
2022/05/01 00:54:19;;;;;;;4.87;3.63;;;7.40;99.90;;;;;;4884344;29;20241;-59
2022/05/01 00:56:51;;;;;;;7.23;4.10;;;7.40;99.90;;;;;;4889491;29;20293;-60
2022/05/01 00:59:20;;;;;;;5.57;3.73;;;7.40;99.90;;;;;;4893489;29;20387;-59
2022/05/01 01:01:50;;;;;;;8.37;4.30;;;7.50;99.90;;;;;;4889162;29;20239;-59
2022/05/01 01:04:18;;;;;;;7.63;4.10;;;7.50;99.90;;;;;;4881122;29;20242;-59
2022/05/01 01:06:48;;;;;;;6.17;3.70;;;7.50;99.90;;;;;;4883391;29;20259;-60
2022/05/01 01:09:19;;;;;;;5.73;4.27;;;7.50;99.90;;;;;;4895109;29;20245;-59
2022/05/01 01:11:47;;;;;;;6.40;4.10;;;7.40;99.90;;;;;;4892261;29;20280;-59
2022/05/01 01:14:15;;;;;;;5.37;3.93;;;7.30;99.90;;;;;;4894361;29;20276;-59
2022/05/01 01:16:45;;;;;;;5.43;3.67;;;7.40;99.90;;;;;;4889054;29;20241;-60
2022/05/01 01:19:13;;;;;;;7.10;3.53;;;7.40;99.90;;;;;;4881875;29;20276;-59
2022/05/01 01:21:43;;;;;;;4.60;3.87;;;7.30;99.90;;;;;;4883924;29;20234;-59
2022/05/01 01:24:11;;;;;;;5.57;4.13;;;7.40;99.90;;;;;;4889643;29;20233;-60
2022/05/01 01:26:40;;;;;;;7.80;4.10;;;7.40;99.90;;;;;;4885938;29;20313;-59
2022/05/01 01:31:54;;;;;;;6.60;4.10;;;7.20;99.90;;;;;;4891252;29;20325;-60
2022/05/01 01:34:25;;;;;;;5.23;4.50;;;7.20;99.90;;;;;;4894953;29;20297;-59
2022/05/01 01:36:55;;;;;;;4.37;3.97;;;7.30;99.90;;;;;;4890481;29;20244;-59
2022/05/01 01:39:25;;;;;;;4.97;4.13;;;7.20;99.90;;;;;;4894831;29;20247;-59
2022/05/01 01:41:55;;;;;;;5.70;3.90;;;7.10;99.90;;;;;;4895876;29;20237;-59
2022/05/01 01:44:24;;;;;;;6.10;4.33;;;7.20;99.90;;;;;;4879915;29;20265;-61
2022/05/01 01:46:53;;;;;;;4.47;4.03;;;7.10;99.90;;;;;;4885818;29;20710;-59
2022/05/01 01:49:21;;;;;;;5.77;4.47;;;7.10;99.90;;;;;;4894662;29;20245;-59
2022/05/01 01:51:49;;;;;;;5.97;3.60;;;7.10;99.90;;;;;;4890845;29;20623;-59
2022/05/01 01:54:18;;;;;;;5.00;3.10;;;7.20;99.90;;;;;;4886214;29;20244;-59
2022/05/01 01:56:47;;;;;;;4.53;3.53;;;7.10;99.90;;;;;;4885718;29;20718;-59
2022/05/01 01:59:15;;;;;;;5.57;3.90;;;7.00;99.90;;;;;;4892014;29;20700;-59
2022/05/01 02:01:43;;;;;;;4.43;4.03;;;7.00;99.90;;;;;;4895452;29;20324;-60
2022/05/01 02:04:12;;;;;;;4.27;3.87;;;7.10;99.90;;;;;;4881136;29;20729;-59
2022/05/01 02:06:40;;;;;;;5.33;3.77;;;7.10;99.90;;;;;;4887218;29;20240;-59
2022/05/01 02:09:08;;;;;;;3.77;3.47;;;6.90;99.90;;;;;;4892624;29;20242;-59
2022/05/01 02:11:38;;;;;;;4.73;3.90;;;7.00;99.90;;;;;;4887960;29;20240;-59
2022/05/01 02:14:10;;;;;;;5.77;3.73;;;6.90;99.90;;;;;;4881134;29;20740;-60
2022/05/01 02:16:40;;;;;;;4.07;3.53;;;6.90;99.90;;;;;;4884812;29;20322;-59
2022/05/01 02:19:09;;;;;;;5.30;3.10;;;6.90;99.90;;;;;;4892290;29;20249;-59
2022/05/01 02:21:36;;;;;;;4.40;3.40;;;6.90;99.90;;;;;;4887441;29;20596;-60
2022/05/01 02:24:09;;;;;;;4.93;3.20;;;6.80;99.90;;;;;;4885252;29;20249;-59
2022/05/01 02:26:39;;;;;;;5.60;3.47;;;6.80;99.90;;;;;;4892083;29;20238;-59
2022/05/01 02:29:10;;;;;;;3.73;3.43;;;6.70;99.90;;;;;;4892039;29;20245;-58
2022/05/01 02:31:41;;;;;;;3.70;3.40;;;6.70;99.90;;;;;;4891968;29;20290;-60
2022/05/01 02:34:10;;;;;;;4.20;3.43;;;6.70;99.90;;;;;;4892121;29;20241;-59
2022/05/01 02:36:38;;;;;;;3.93;3.53;;;6.70;99.90;;;;;;4887157;29;20233;-59
2022/05/01 02:39:07;;;;;;;5.73;3.97;;;6.70;99.90;;;;;;4880921;29;20253;-59
2022/05/01 02:41:35;;;;;;;4.80;4.30;;;6.80;99.90;;;;;;4878937;29;20748;-59
2022/05/01 02:44:05;;;;;;;4.87;4.13;;;6.80;99.90;;;;;;4881859;29;20341;-59
2022/05/01 02:46:33;;;;;;;5.53;4.37;;;6.90;99.90;;;;;;4880526;29;20240;-60
2022/05/01 02:49:02;;;;;;;5.17;4.00;;;6.90;99.90;;;;;;4882229;29;20242;-59
2022/05/01 02:51:30;;;;;;;7.63;5.70;;;6.90;99.90;;;;;;4887388;29;20253;-60
2022/05/01 02:53:58;;;;;;;4.73;3.93;;;6.90;99.90;;;;;;4886486;29;20260;-59
2022/05/01 02:56:27;;;;;;;5.20;4.70;;;6.90;99.90;;;;;;4891642;29;20237;-59
2022/05/01 02:58:55;;;;;;;6.27;4.23;;;6.70;99.90;;;;;;4890298;29;20244;-59
2022/05/01 03:01:25;;;;;;;6.73;4.73;;;6.70;99.90;;;;;;4887447;29;20614;-59
2022/05/01 03:03:53;;;;;;;6.00;4.50;;;6.80;99.90;;;;;;4884070;29;20316;-59
2022/05/01 03:06:21;;;;;;;7.27;5.30;;;6.70;99.90;;;;;;4878211;29;20268;-59
2022/05/01 03:08:49;;;;;;;6.80;5.03;;;6.60;99.90;;;;;;4882976;29;20252;-59
2022/05/01 03:11:18;;;;;;;5.37;4.57;;;6.70;99.90;;;;;;4877679;29;20257;-58
2022/05/01 03:13:46;;;;;;;7.83;4.83;;;6.70;99.90;;;;;;4883155;29;20242;-59
2022/05/01 03:16:15;;;;;;;6.47;5.17;;;6.70;99.90;;;;;;4884764;29;20241;-59
2022/05/01 03:24:18;;;;;;;8.17;5.57;;;6.60;99.90;;;;;;4884033;29;20250;-59
2022/05/01 03:26:47;;;;;;;5.50;4.90;;;6.70;99.90;;;;;;4888936;29;20245;-59
2022/05/01 03:29:15;;;;;;;5.10;4.33;;;6.60;99.90;;;;;;4892238;29;20590;-59
2022/05/01 03:31:46;;;;;;;6.20;5.30;;;6.60;99.90;;;;;;4886755;29;20276;-59
2022/05/01 03:34:17;;;;;;;5.10;4.60;;;6.60;99.90;;;;;;4891439;29;20590;-59
2022/05/01 03:36:46;;;;;;;5.13;4.57;;;6.50;99.90;;;;;;4890102;29;20281;-59
2022/05/01 03:39:15;;;;;;;6.57;5.17;;;6.50;99.90;;;;;;4886477;29;20320;-59
2022/05/01 03:41:43;;;;;;;6.23;4.90;;;6.50;99.90;;;;;;4890650;29;20236;-59
2022/05/01 03:44:11;;;;;;;6.27;5.53;;;6.40;99.90;;;;;;4883666;29;20647;-59
2022/05/01 03:46:39;;;;;;;6.73;4.23;;;6.40;99.90;;;;;;4887641;29;20243;-59
2022/05/01 03:49:09;;;;;;;5.00;4.50;;;6.50;99.90;;;;;;4894813;29;20249;-59
2022/05/01 03:51:38;;;;;;;11.10;5.37;;;6.50;99.90;;;;;;4890699;29;20252;-59
2022/05/01 03:54:06;;;;;;;6.93;5.27;;;6.60;99.90;;;;;;4884181;29;20273;-59
2022/05/01 03:56:35;;;;;;;5.80;5.00;;;6.40;99.90;;;;;;4889058;29;20241;-59
2022/05/01 03:59:04;;;;;;;6.90;4.97;;;6.30;99.90;;;;;;4897133;29;20483;-59
2022/05/01 04:01:33;;;;;;;6.30;5.20;;;6.30;99.90;;;;;;4890288;29;20245;-58
2022/05/01 04:04:01;;;;;;;5.93;5.10;;;6.20;99.90;;;;;;4894932;29;20328;-59
2022/05/01 04:06:30;;;;;;;5.87;5.23;;;6.10;99.90;;;;;;4892466;29;20260;-59
2022/05/01 04:09:00;;;;;;;5.83;5.23;;;6.00;99.90;;;;;;4893491;29;20265;-59
2022/05/01 04:11:28;;;;;;;7.90;5.17;;;6.00;99.90;;;;;;4885533;29;20254;-59
2022/05/01 04:13:56;;;;;;;6.40;4.37;;;6.10;99.90;;;;;;4887217;29;20245;-58
2022/05/01 04:16:24;;;;;;;7.33;4.80;;;6.20;99.90;;;;;;4873750;29;20302;-59
2022/05/01 04:18:52;;;;;;;5.40;4.87;;;6.20;99.90;;;;;;4868114;29;20688;-59
2022/05/01 04:21:20;;;;;;;6.13;4.07;;;6.30;99.90;;;;;;4868754;29;20245;-59
2022/05/01 04:23:49;;;;;;;4.97;4.43;;;6.30;99.90;;;;;;4871908;29;20597;-58
2022/05/01 04:26:18;;;;;;;3.87;3.47;;;6.30;99.90;;;;;;4870720;29;20234;-59
2022/05/01 04:31:28;;;;;;;4.33;3.93;;;6.60;99.90;;;;;;4875551;29;20246;-59
2022/05/01 04:33:57;;;;;;;3.83;3.43;;;6.40;99.90;;;;;;4889066;29;20233;-59
2022/05/01 04:36:26;;;;;;;5.73;3.63;;;6.50;99.90;;;;;;4888981;29;20245;-59
2022/05/01 04:38:54;;;;;;;6.10;3.50;;;6.60;99.90;;;;;;4884173;29;20659;-60
2022/05/01 04:41:23;;;;;;;4.03;3.63;;;6.80;99.90;;;;;;4878948;29;20777;-60
2022/05/01 04:43:51;;;;;;;4.20;3.60;;;6.70;99.90;;;;;;4892342;29;20690;-59
2022/05/01 04:46:20;;;;;;;5.57;3.80;;;6.60;99.90;;;;;;4887969;29;20269;-59
2022/05/01 04:48:48;;;;;;;4.70;3.83;;;6.80;99.90;;;;;;4881196;29;20230;-58
2022/05/01 04:51:19;;;;;;;4.23;3.83;;;6.90;99.90;;;;;;4888983;29;20873;-59
2022/05/01 04:53:47;;;;;;;3.77;3.47;;;7.10;99.90;;;;;;4891860;29;20261;-58
2022/05/01 04:59:03;;;;;;;3.73;3.33;;;7.10;99.90;;;;;;4888138;29;20318;-60
2022/05/01 05:01:32;;;;;;;3.67;3.37;;;7.20;99.90;;;;;;4894437;29;20234;-59
2022/05/01 05:04:01;;;;;;;5.80;3.47;;;7.40;99.90;;;;;;4896877;29;20774;-59
2022/05/01 05:06:29;;;;;;;4.17;3.77;;;7.50;99.90;;;;;;4897438;29;20245;-59
2022/05/01 05:11:43;;;;;;;5.93;4.83;;;8.00;99.90;;;;;;4882568;29;20265;-59
2022/05/01 05:14:12;;;;;;;5.57;4.10;;;8.20;99.90;;;;;;4881929;29;20250;-59
2022/05/01 05:16:41;;;;;;;4.90;4.40;;;8.30;99.90;;;;;;4885123;29;20252;-60
2022/05/01 05:19:09;;;;;;;4.83;4.43;;;8.40;99.90;;;;;;4890261;29;20241;-60
2022/05/01 05:21:37;;;;;;;6.30;4.70;;;8.30;99.90;;;;;;4885918;29;20745;-59
2022/05/01 05:24:06;;;;;;;5.87;5.27;;;8.30;99.90;;;;;;4878563;29;20250;-59
2022/05/01 05:26:34;;;;;;;7.27;5.07;;;8.50;99.90;;;;;;4889091;29;20234;-59
2022/05/01 05:29:03;;;;;;;8.10;5.20;;;8.90;99.90;;;;;;4896617;29;20253;-59
2022/05/01 05:31:33;;;;;;;6.00;5.33;;;9.00;99.90;;;;;;4895467;29;20249;-60
2022/05/01 05:34:01;;;;;;;5.63;5.03;;;9.10;99.90;;;;;;4889323;29;20253;-60
2022/05/01 05:36:29;;;;;;;6.13;5.53;;;9.20;99.90;;;;;;4894022;29;20301;-62
2022/05/01 05:38:57;;;;;;;4.93;4.47;;;9.40;99.90;;;;;;4891928;29;20324;-59
2022/05/01 05:41:26;;;;;;;5.43;4.80;;;9.60;99.90;;;;;;4894146;29;20705;-60
2022/05/01 05:43:54;;;;;;;5.90;4.57;;;9.70;99.90;;;;;;4883703;29;20238;-59
2022/05/01 05:46:28;;;;;;;6.40;4.50;;;9.90;99.90;;;;;;4882390;29;20241;-60
2022/05/01 05:48:58;;;;;;;6.67;4.80;;;10.00;99.90;;;;;;4896892;29;20234;-60
2022/05/01 05:51:26;;;;;;;7.73;4.80;;;10.10;99.90;;;;;;4896614;29;20265;-60
2022/05/01 05:53:56;;;;;;;5.30;4.30;;;10.30;99.90;;;;;;4881826;29;20245;-59
2022/05/01 05:56:25;;;;;;;8.07;4.80;;;10.50;99.90;;;;;;4872232;29;20602;-60
2022/05/01 05:58:53;;;;;;;5.07;3.93;;;10.60;99.90;;;;;;4876899;29;20321;-60
2022/05/01 06:01:21;;;;;;;4.63;3.97;;;10.70;99.90;;;;;;4875503;29;20250;-59
2022/05/01 06:03:50;;;;;;;4.50;4.07;;;10.80;99.90;;;;;;4859230;29;20240;-60
2022/05/01 06:06:19;;;;;;;7.10;4.27;;;10.90;99.90;;;;;;4869142;29;20279;-59
2022/05/01 06:08:47;;;;;;;7.97;4.20;;;11.10;99.90;;;;;;4877682;29;20315;-59
2022/05/01 06:11:15;;;;;;;5.07;3.83;;;11.20;99.90;;;;;;4869270;29;20589;-59
2022/05/01 06:13:44;;;;;;;5.67;4.03;;;11.20;99.90;;;;;;4865855;29;20249;-60
2022/05/01 06:16:12;;;;;;;6.93;3.80;;;11.30;99.90;;;;;;4877297;29;20286;-60
2022/05/01 06:18:41;;;;;;;7.63;4.00;;;11.50;99.90;;;;;;4874479;29;20331;-60
2022/05/01 06:21:09;;;;;;;4.63;3.97;;;11.50;99.90;;;;;;4876552;29;20696;-60
2022/05/01 06:23:38;;;;;;;5.20;3.90;;;11.70;99.90;;;;;;4877239;29;20242;-60
2022/05/01 06:26:07;;;;;;;4.33;3.90;;;11.90;99.90;;;;;;4870208;29;20251;-60
2022/05/01 06:28:35;;;;;;;6.20;4.10;;;11.90;99.90;;;;;;4867880;29;20619;-63
2022/05/01 06:31:04;;;;;;;5.53;4.00;;;11.80;99.90;;;;;;4866066;29;20256;-59
2022/05/01 06:33:34;;;;;;;7.83;4.07;;;11.80;99.90;;;;;;4866397;29;20320;-60
2022/05/01 06:36:03;;;;;;;4.27;3.87;;;11.70;99.90;;;;;;4859138;29;20245;-59
2022/05/01 06:38:32;;;;;;;5.90;3.97;;;11.90;99.90;;;;;;4874186;29;20606;-59
2022/05/01 06:41:03;;;;;;;6.77;3.53;;;11.80;99.90;;;;;;4865158;29;20658;-61
2022/05/01 06:43:32;;;;;;;9.30;4.40;;;11.80;99.90;;;;;;4865954;29;20244;-59
2022/05/01 06:46:00;;;;;;;6.90;3.93;;;11.70;99.90;;;;;;4870912;29;20330;-60
2022/05/01 06:48:28;;;;;;;4.60;3.20;;;11.90;99.90;;;;;;4875793;29;20707;-59
2022/05/01 06:50:56;;;;;;;8.00;4.20;;;11.90;99.90;;;;;;4885384;29;20336;-59
2022/05/01 06:53:25;;;;;;;5.33;4.07;;;12.00;99.90;;;;;;4883221;29;20246;-59
2022/05/01 06:55:54;;;;;;;5.17;4.20;;;12.10;99.90;;;;;;4882436;29;20592;-59
2022/05/01 06:58:24;;;;;;;5.57;4.57;;;12.30;99.90;;;;;;4884660;29;20249;-59
2022/05/01 07:00:53;;;;;;;7.07;3.97;;;12.40;99.90;;;;;;4885548;29;20597;-59
2022/05/01 07:03:21;;;;;;;4.77;3.73;;;12.70;99.90;;;;;;4884527;29;20242;-59
2022/05/01 07:05:50;;;;;;;6.40;3.87;;;12.80;99.90;;;;;;4880143;29;20244;-59
2022/05/01 07:08:18;;;;;;;5.47;3.70;;;12.70;99.90;;;;;;4884770;29;20601;-59
2022/05/01 07:10:46;;;;;;;6.17;3.70;;;12.80;99.90;;;;;;4881605;29;20331;-59
2022/05/01 07:13:14;;;;;;;6.03;3.77;;;12.90;99.90;;;;;;4884536;29;20249;-59
2022/05/01 07:15:43;;;;;;;5.67;3.70;;;13.10;99.90;;;;;;4891009;29;20251;-59
2022/05/01 07:18:12;;;;;;;3.97;3.27;;;12.90;99.90;;;;;;4887675;29;20254;-59
2022/05/01 07:20:40;;;;;;;6.57;3.47;;;13.30;99.90;;;;;;4891540;29;20331;-60
2022/05/01 07:23:08;;;;;;;5.90;3.27;;;13.30;99.90;;;;;;4884799;29;20245;-59
2022/05/01 07:25:36;;;;;;;5.70;3.03;;;13.10;99.90;;;;;;4885094;29;20732;-59
2022/05/01 07:28:05;;;;;;;3.93;2.80;;;13.00;99.90;;;;;;4886888;29;20295;-60
2022/05/01 07:30:33;;;;;;;5.03;3.33;;;13.00;99.90;;;;;;4886957;29;20236;-59
2022/05/01 07:33:03;;;;;;;4.43;2.93;;;13.10;99.90;;;;;;4885915;29;20649;-59
2022/05/01 07:35:31;;;;;;;4.03;3.07;;;13.30;99.90;;;;;;4888857;29;20279;-60
2022/05/01 07:38:02;;;;;;;3.90;2.80;;;13.50;99.90;;;;;;4884207;29;20299;-60
2022/05/01 07:40:30;;;;;;;4.87;3.20;;;14.20;99.90;;;;;;4881242;29;20692;-60
2022/05/01 07:42:58;;;;;;;3.23;2.40;;;14.60;99.90;;;;;;4884435;29;20248;-60
2022/05/01 07:45:26;;;;;;;3.70;2.60;;;14.60;99.90;;;;;;4889915;29;20272;-59
2022/05/01 07:47:58;;;;;;;4.20;2.77;;;14.70;99.90;;;;;;4883881;29;20268;-60
2022/05/01 07:50:28;;;;;;;4.27;2.93;;;14.50;99.90;;;;;;4890590;29;20240;-60
2022/05/01 07:52:57;;;;;;;4.43;3.07;;;14.30;99.90;;;;;;4886831;29;20300;-59
2022/05/01 07:55:25;;;;;;;6.13;3.50;;;14.80;99.90;;;;;;4888806;29;20736;-60
2022/05/01 07:57:53;;;;;;;6.17;3.13;;;15.10;99.90;;;;;;4887422;29;20708;-59
2022/05/01 08:00:21;;;;;;;5.27;2.83;;;15.50;99.90;;;;;;4890122;29;20245;-60
2022/05/01 08:05:37;;;;;;;5.93;3.10;;;15.50;99.90;;;;;;4885054;29;20241;-61
2022/05/01 08:08:05;;;;;;;4.97;2.17;;;15.70;99.90;;;;;;4885501;29;20830;-60
2022/05/01 08:10:34;;;;;;;4.63;2.50;;;15.70;99.90;;;;;;4894517;29;20233;-59
2022/05/01 08:13:03;;;;;;;2.83;2.20;;;16.20;99.90;;;;;;4886835;29;20245;-60
2022/05/01 08:15:31;;;;;;;2.97;2.30;;;16.60;99.90;;;;;;4892014;29;20627;-61
2022/05/01 08:21:05;;;;;;;3.97;2.30;;;16.90;99.90;;;;;;4887914;29;20717;-62
2022/05/01 08:21:08;;;;;;;4.67;2.40;;;17.10;99.90;;;;;;4894446;29;20328;-60
2022/05/01 08:23:39;;;;;;;2.83;2.37;;;16.90;99.90;;;;;;4896939;29;20241;-60
2022/05/01 08:26:10;;;;;;;5.50;2.63;;;16.80;99.90;;;;;;4896296;29;20293;-60
2022/05/01 08:28:40;;;;;;;2.13;1.80;;;16.90;99.90;;;;;;4896034;29;20666;-59
2022/05/01 08:31:09;;;;;;;4.47;2.20;;;16.90;99.90;;;;;;4897758;29;20249;-60
2022/05/01 08:33:39;;;;;;;3.70;1.90;;;16.90;99.90;;;;;;4882689;29;20279;-60
2022/05/01 08:36:09;;;;;;;5.20;2.10;;;17.10;99.90;;;;;;4888318;29;20274;-60
2022/05/01 08:38:37;;;;;;;5.03;2.40;;;17.30;99.90;;;;;;4892878;29;20249;-60
2022/05/01 08:41:06;;;;;;;5.33;2.33;;;17.40;99.90;;;;;;4894199;29;20230;-61
2022/05/01 08:43:35;;;;;;;3.07;2.10;;;17.20;99.90;;;;;;4886496;29;20233;-62
2022/05/01 08:46:34;;;;;;;3.17;2.00;;;17.30;99.90;;;;;;4884604;29;20790;-60
2022/05/01 08:49:05;;;;;;;3.83;1.80;;;17.40;99.90;;;;;;4886374;29;20806;-60
2022/05/01 08:51:35;;;;;;;4.20;1.87;;;17.60;99.90;;;;;;4884591;29;20301;-61
2022/05/01 08:54:06;;;;;;;3.67;1.60;;;17.40;99.90;;;;;;4876910;29;20349;-61
2022/05/01 08:56:37;;;;;;;2.90;1.60;;;17.60;99.90;;;;;;4873222;29;20246;-60
2022/05/01 08:59:09;;;;;;;2.37;1.53;;;17.60;99.90;;;;;;4876527;29;20249;-60
2022/05/01 09:01:38;;;;;;;1.57;1.10;;;17.70;99.90;;;;;;4881414;29;20320;-60
2022/05/01 09:04:08;;;;;;;2.07;1.10;;;17.70;99.90;;;;;;4882493;29;20242;-61
2022/05/01 09:06:38;;;;;;;2.43;1.40;;;17.70;99.90;;;;;;4874450;29;20263;-62
2022/05/01 09:09:06;;;;;;;2.00;1.00;;;17.90;99.90;;;;;;4875286;29;20243;-62
2022/05/01 09:14:22;;;;;;;4.23;1.20;;;18.40;99.90;;;;;;4874843;29;20308;-60
2022/05/01 09:17:10;;;;;;;1.83;1.40;;;18.60;99.90;;;;;;4879792;29;20290;-60
2022/05/01 09:19:42;;;;;;;1.77;1.30;;;19.20;99.90;;;;;;4886246;29;20236;-60
2022/05/01 09:22:13;;;;;;;2.47;1.40;;;19.20;99.90;;;;;;4882547;29;20341;-60
2022/05/01 09:24:41;;;;;;;2.53;1.50;;;19.40;99.90;;;;;;4883848;29;20813;-60
2022/05/01 09:27:27;;;;;;;3.53;1.60;;;19.20;99.90;;;;;;4884443;29;20322;-62
2022/05/01 09:30:10;;;;;;;1.93;1.50;;;19.30;99.90;;;;;;4880038;29;20305;-62
2022/05/01 09:32:39;;;;;;;4.30;1.60;;;19.40;99.90;;;;;;4873741;29;20245;-60
2022/05/01 09:35:12;;;;;;;3.17;1.73;;;19.70;99.90;;;;;;4879651;29;20308;-62
2022/05/01 09:37:43;;;;;;;5.93;2.00;;;19.70;99.90;;;;;;4884552;29;20238;-60
2022/05/01 09:40:13;;;;;;;2.27;1.53;;;19.20;99.90;;;;;;4885548;29;20240;-60
2022/05/01 09:42:41;;;;;;;3.70;2.00;;;19.50;99.90;;;;;;4882373;29;20245;-60
2022/05/01 09:45:12;;;;;;;4.67;2.17;;;19.90;99.90;;;;;;4890898;29;20240;-60
2022/05/01 09:47:41;;;;;;;3.10;1.90;;;19.30;99.90;;;;;;4874968;29;20241;-60
2022/05/01 09:50:11;;;;;;;3.40;1.67;;;19.70;99.90;;;;;;4873746;29;20249;-60
2022/05/01 09:53:02;;;;;;;3.27;1.70;;;19.80;99.90;;;;;;4874418;29;20296;-62
2022/05/01 09:55:31;;;;;;;4.23;1.77;;;19.60;99.90;;;;;;4874358;29;21009;-61
2022/05/01 09:58:06;;;;;;;2.47;2.00;;;19.40;99.90;;;;;;4877953;29;20244;-60
2022/05/01 10:00:40;;;;;;;5.60;2.20;;;18.50;99.90;;;;;;4874353;29;20629;-62
2022/05/01 10:03:25;;;;;;;3.57;2.30;;;18.60;99.90;;;;;;4875724;29;20243;-60
2022/05/01 10:05:55;;;;;;;2.70;2.20;;;17.70;99.90;;;;;;4884521;29;20592;-60
2022/05/01 10:08:26;;;;;;;3.07;2.07;;;17.20;99.90;;;;;;4885776;29;20330;-60
2022/05/01 10:10:58;;;;;;;3.03;1.80;;;17.20;99.90;;;;;;4883225;29;20250;-62
2022/05/01 10:13:28;;;;;;;2.20;2.00;;;17.10;99.90;;;;;;4883313;29;20729;-60
2022/05/01 10:16:08;;;;;;;2.43;1.80;;;16.80;99.90;;;;;;4885720;29;20333;-62
2022/05/01 10:18:37;;;;;;;2.27;1.87;;;16.50;99.90;;;;;;4873751;29;20242;-62
2022/05/01 10:21:21;;;;;;;2.67;1.97;;;16.30;99.90;;;;;;4871652;29;20251;-60
2022/05/01 10:23:51;;;;;;;4.00;1.90;;;16.20;99.90;;;;;;4881821;29;20238;-60
2022/05/01 10:26:24;;;;;;;3.00;2.00;;;16.20;99.90;;;;;;4884299;29;20249;-61
2022/05/01 10:32:20;;;;;;;2.50;2.07;;;16.00;99.90;;;;;;4885009;29;20305;-61
2022/05/01 10:32:46;;;;;;;4.33;2.33;;;15.70;99.90;;;;;;4880346;29;20247;-61
2022/05/01 10:36:04;;;;;;;2.50;2.17;;;15.50;99.90;;;;;;4884898;29;20332;-61
2022/05/01 10:38:47;;;;;;;4.00;2.23;;;15.40;99.90;;;;;;4880929;29;20252;-61
2022/05/01 10:41:17;;;;;;;3.67;2.60;;;15.50;99.90;;;;;;4884232;29;20595;-61
2022/05/01 10:43:55;;;;;;;3.70;2.30;;;15.30;99.90;;;;;;4881525;29;20257;-60
2022/05/01 10:46:31;;;;;;;3.10;2.10;;;15.10;99.90;;;;;;4884941;29;20249;-62
2022/05/01 10:49:05;;;;;;;3.03;2.30;;;15.10;99.90;;;;;;4885457;29;20256;-61
2022/05/01 10:51:45;;;;;;;3.33;2.20;;;15.00;99.90;;;;;;4883229;29;20972;-62
2022/05/01 10:54:37;;;;;;;3.33;2.03;;;15.10;99.90;;;;;;4884169;29;20241;-63
2022/05/01 10:57:17;;;;;;;3.10;1.90;;;15.20;99.90;;;;;;4884614;29;20257;-63
2022/05/01 10:59:48;;;;;;;2.60;2.17;;;15.20;99.90;;;;;;4884325;29;20245;-60
2022/05/01 11:02:31;;;;;;;3.23;1.83;;;15.10;99.90;;;;;;4881675;29;20241;-62
2022/05/01 11:05:00;;;;;;;3.33;1.80;;;15.20;99.90;;;;;;4884598;29;20303;-61
2022/05/01 11:07:34;;;;;;;3.07;1.77;;;15.40;99.90;;;;;;4884642;29;20244;-62
2022/05/01 11:10:06;;;;;;;2.83;1.93;;;15.50;99.90;;;;;;4883625;29;20252;-63
2022/05/01 11:12:36;;;;;;;3.93;2.00;;;15.90;99.90;;;;;;4881221;29;20252;-62
2022/05/01 11:15:09;;;;;;;3.57;1.90;;;16.10;99.90;;;;;;4884288;29;20351;-62
2022/05/01 11:17:56;;;;;;;2.50;1.70;;;16.20;99.90;;;;;;4883554;29;20979;-60
2022/05/01 11:20:31;;;;;;;3.10;2.03;;;16.50;99.90;;;;;;4871323;29;20726;-61
2022/05/01 11:23:30;;;;;;;3.83;1.90;;;16.60;99.90;;;;;;4878337;29;20323;-61
2022/05/01 11:26:14;;;;;;;3.47;1.80;;;16.70;99.90;;;;;;4871017;29;20345;-60
2022/05/01 11:28:46;;;;;;;2.23;1.80;;;16.80;99.90;;;;;;4882569;29;20237;-62
2022/05/01 11:31:46;;;;;;;2.40;1.70;;;16.30;99.90;;;;;;4883831;29;20253;-63
2022/05/01 11:34:38;;;;;;;3.33;1.70;;;16.10;99.90;;;;;;4883508;29;20332;-60
2022/05/01 11:37:08;;;;;;;2.43;1.83;;;16.40;99.90;;;;;;4883055;29;20304;-60
2022/05/01 11:40:28;;;;;;;1.70;1.57;;;16.40;99.90;;;;;;4883794;29;20324;-61
2022/05/01 11:43:16;;;;;;;2.63;2.10;;;16.50;99.90;;;;;;4888422;29;20252;-62
2022/05/01 11:45:46;;;;;;;4.83;2.30;;;16.30;99.90;;;;;;4870156;29;20250;-62
2022/05/01 11:48:15;;;;;;;5.97;2.67;;;16.00;99.90;;;;;;4871210;29;20250;-61
2022/05/01 11:50:44;;;;;;;2.53;1.87;;;15.90;99.90;;;;;;4870477;29;21136;-60
2022/05/01 11:53:20;;;;;;;3.50;2.13;;;15.70;99.90;;;;;;4877575;29;20254;-62
2022/05/01 12:04:25;;;;;;;3.63;2.30;;;14.90;99.90;;;;;;4875777;29;20762;-61
2022/05/01 12:07:02;;;;;;;5.93;2.90;;;14.90;99.90;;;;;;4874963;29;20435;-62
2022/05/01 12:09:33;;;;;;;4.20;2.40;;;14.90;99.90;;;;;;4873937;29;20305;-62
2022/05/01 12:12:01;;;;;;;4.00;2.60;;;14.80;99.90;;;;;;4876082;29;20325;-61
2022/05/01 12:14:29;;;;;;;2.90;2.60;;;14.70;99.90;;;;;;4875141;29;20244;-63
2022/05/01 12:16:59;;;;;;;4.00;2.63;;;14.50;99.90;;;;;;4874524;29;20257;-61
2022/05/01 12:19:35;;;;;;;3.93;2.50;;;14.40;99.90;;;;;;4874051;29;20332;-60
2022/05/01 12:22:04;;;;;;;4.83;2.70;;;14.50;99.90;;;;;;4877984;29;20272;-61
2022/05/01 12:24:33;;;;;;;5.17;3.17;;;14.60;99.90;;;;;;4876402;29;20237;-60
2022/05/01 12:27:02;;;;;;;4.37;2.80;;;14.40;99.90;;;;;;4878022;29;20246;-60
2022/05/01 12:29:30;;;;;;;5.13;3.63;;;14.30;99.90;;;;;;4879111;29;20260;-61
2022/05/01 12:32:10;;;;;;;6.53;3.77;;;14.10;99.90;;;;;;4879346;29;20257;-60
2022/05/01 12:34:40;;;;;;;6.77;3.90;;;14.00;99.90;;;;;;4878824;29;20242;-61
2022/05/01 12:37:12;;;;;;;5.77;3.90;;;13.90;99.90;;;;;;4873240;29;20730;-60
2022/05/01 12:39:41;;;;;;;7.67;4.20;;;13.80;99.90;;;;;;4872989;29;20245;-60
2022/05/01 12:45:20;;;;;;;6.13;4.27;;;13.80;99.90;;;;;;4876348;29;20273;-61
2022/05/01 12:47:51;;;;;;;4.77;3.80;;;13.80;99.90;;;;;;4871483;29;20316;-60
2022/05/01 12:50:29;;;;;;;5.83;3.90;;;13.70;99.90;;;;;;4874200;29;20739;-60
2022/05/01 12:53:00;;;;;;;5.60;4.00;;;13.70;99.90;;;;;;4876831;29;20268;-60
2022/05/01 12:55:37;;;;;;;6.33;3.80;;;13.70;99.90;;;;;;4878232;29;20253;-61
2022/05/01 12:58:08;;;;;;;3.90;3.30;;;13.70;99.90;;;;;;4873725;29;20348;-62
2022/05/01 13:00:40;;;;;;;5.40;3.60;;;13.80;99.90;;;;;;4873195;29;20237;-61
2022/05/01 13:03:23;;;;;;;5.57;3.60;;;13.80;99.90;;;;;;4877433;29;20344;-62
2022/05/01 13:06:01;;;;;;;3.80;3.20;;;13.80;99.90;;;;;;4874807;29;20305;-60
2022/05/01 13:08:32;;;;;;;4.07;3.37;;;13.80;99.90;;;;;;4872792;29;20694;-61
2022/05/01 13:11:19;;;;;;;5.23;3.73;;;13.80;99.90;;;;;;4878604;29;20652;-60
2022/05/01 13:13:50;;;;;;;3.63;3.27;;;13.80;99.90;;;;;;4883890;29;20291;-60
2022/05/01 13:16:21;;;;;;;4.93;3.37;;;13.90;99.90;;;;;;4886241;29;20256;-61
2022/05/01 13:18:52;;;;;;;5.33;4.07;;;13.90;99.90;;;;;;4885886;29;21498;-60
2022/05/01 13:21:22;;;;;;;5.27;3.73;;;13.90;99.90;;;;;;4885438;29;20248;-60
2022/05/01 13:23:52;;;;;;;4.53;3.50;;;13.80;99.90;;;;;;4882099;29;20251;-60
2022/05/01 13:26:20;;;;;;;6.33;3.70;;;13.90;99.90;;;;;;4885930;29;20253;-60
2022/05/01 13:28:49;;;;;;;6.10;3.93;;;13.80;99.90;;;;;;4885104;29;20233;-60
2022/05/01 13:31:17;;;;;;;5.50;3.90;;;13.90;99.90;;;;;;4885867;29;20257;-62
2022/05/01 13:33:46;;;;;;;4.10;3.60;;;13.90;99.90;;;;;;4882895;29;20660;-60
2022/05/01 13:36:15;;;;;;;7.77;4.57;;;13.80;99.90;;;;;;4884728;29;20744;-63
2022/05/01 13:38:44;;;;;;;6.30;4.10;;;13.80;99.90;;;;;;4885550;29;20755;-60
2022/05/01 13:46:43;;;;;;;5.93;4.10;;;13.60;99.90;;;;;;4884922;29;20248;-60
2022/05/01 13:49:11;;;;;;;5.63;3.90;;;13.50;99.90;;;;;;4884541;29;20763;-61
2022/05/01 13:51:41;;;;;;;4.83;3.30;;;13.50;99.90;;;;;;4883933;29;20316;-61
2022/05/01 13:54:09;;;;;;;4.97;3.60;;;13.50;99.90;;;;;;4883444;29;20244;-60